Saturday, September 20, 2014
18:04 UTC
  |  Log In   |  Register Free
Airport Search:

Heart Of Georgia Regional Airport
(KEZM)

FAA data valid effective September 18, 2014 - November 13, 2014 (unless otherwise noted).

 
 
 
 
 
 
 
 
 
 
 
 
 
 

Current Aviation Weather for Heart Of Georgia Regional Airport (KEZM)

The most recent METAR observation for KEZM was updated at: 1709
METAR Summary (Translated METAR)
KEZM
201655Z AUTO 06008KT 10SM BKN023 OVC028 26/21 A3010 RMK AO2 T02610213
KDBN
201655Z AUTO 08011G16KT 10SM SCT026 SCT035 BKN048 26/20 A3010 RMK AO2
(22.1 nm NE from KEZM)
KAZE
201655Z AUTO 04007KT 10SM SCT024 BKN029 27/21 A3003 RMK AO2 T02670211
(31.6 nm SE from KEZM)
TAF
No TAF information found within 50 nm of KEZM
  Airport Weather Conditions for KEZM

 Current Weather at EZM
79° F
Overcast
Northeast winds at 9.2 mph
EZM NOAA Radar

Pressure: 30.10 in
Humidity: 75%
Wind: Northeast at 9.2 MPH (8 KT)
Dew Point: 70.3°F
Visibility: 10.00 mi


Airport Weather Forecast for KEZM

Translated METAR and TAF for KEZM
Translated METAR for KEZM (1759 UTC 20 September 2014)
found at http://aviationweather.gov/adds/metars/
 
METAR text: KEZM 201735Z AUTO 05010G14KT 10SM SCT024 BKN031 OVC048 27/21 A3008 RMK AO2 T02730212
Conditions at: KEZM (EASTMAN , GA, US) observed 1735 UTC 20 September 2014
Temperature: 27.3°C (81°F)
Dewpoint: 21.2°C (70°F) [RH = 69%]
Pressure (altimeter): 30.08 inches Hg (1018.7 mb)
Winds: from the NE (50 degrees) at 12 MPH (10 knots; 5.2 m/s)
gusting to 16 MPH (14 knots; 7.3 m/s)
Visibility: 10 or more miles (16+ km)
Ceiling: 3100 feet AGL
Clouds: scattered clouds at 2400 feet AGL
broken clouds at 3100 feet AGL
overcast cloud deck at 4800 feet AGL
Weather: automated observation with no human augmentation;
there may or may not be significant weather present at this time
Translated TAF for KEZM

There is no translated TAF available for this airport

Find All Airport Services Find A Hotel Find A Rental Car Find A Golf Course Find A Restaurant $100 Hamburger



FBO's on the Field
FBO Company Facility Photos Services Transportation Aviation Fuel Prices: Prices include tax
Catering Weather Repair Courtesy Rental Type 100LL JetA JetA+ MOGAS 8087
 
Heart of Georgia Regional Airport

This FBO has not yet been rated
FS:Phillips66
Last Updated: Sep-02
Login to update fuel prices
SS:
Contact Heart of Georgia Regional AirportMore FBO Information
 
Add another FBO Facility Photos Catering Weather Repair Courtesy Rental Type 100LL JetA JetA+ MOGAS 8087
Services Transportation Aviation Fuel Prices: Prices include tax


model-print
model-print
model-print
model-print